Melvin, IA

3:19 PM CDT on August 30, 2014 (GMT -0500)
Sheldon Municipal | Change Station
CLOSE
Current Station
Airport
Location: Sheldon,
Elevation: 1417 ft
Nearby Weather Stations

Elev 1417 ft 43.21 °N, 95.84 °W | Updated 1 hour ago

Scattered Clouds
Scattered Clouds
73 °F
Feels Like 73 °F
N
9
Wind Variable Wind from West

Today
High -- | Low -- °F
--% Chance of Precip.
Yesterday
High -- | Low -- °F
Precip. -- in
6:44 AM 8:00 PM
Waxing Crescent, 24% visible
Pressure 29.90 in
Visibility 10.0 miles
Clouds Scattered Clouds 3100 ft
Scattered Clouds 3800 ft
Dew Point 66 °F
Humidity 78%
Rainfall 0.00 in
Snow Depth Not available.
UV 7 out of 12
Pollen 9.00 out of 12
Air Quality Not available.
Flu Activity Not available.
METAR KSHL 301915Z AUTO 27008KT 230V310 10SM SCT031 SCT038 23/19 A2990 RMK AO2

More Conditions Fewer Conditions

Pressure 29.90 in
Visibility 10.0 miles
Clouds Scattered Clouds 3100 ft
Scattered Clouds 3800 ft
Dew Point 66 °F
Humidity 78%
Rainfall 0.00 in
Snow Depth Not available.
UV 7 out of 12
Pollen 9.00 out of 12
Air Quality Not available.
Flu Activity Not available.
METAR KSHL 301915Z AUTO 27008KT 230V310 10SM SCT031 SCT038 23/19 A2990 RMK AO2

More Conditions Fewer Conditions

10-Day Weather Forecast

Almanac

Astronomy

Aug. 30, 2014 Rise Set
Actual Time 6:44 AM CDT 8:00 PM CDT
Civil Twilight 6:14 AM CDT 8:30 PM CDT
Nautical Twilight 5:39 AM CDT 9:05 PM CDT
Astronomical Twilight 5:01 AM CDT 9:42 PM CDT
Moon 11:41 AM CDT 10:26 PM CDT
Length of Visible Light 14h 15m
Length of Day
13h 16m
Tomorrow will be 2m 49s shorter.
Waxing Crescent, 24% of the Moon is Illuminated
Today
Waxing Crescent
Sep 2
First Quarter
Sep 8
Full
Sep 15
Last Quarter
Sep 24
New

Today's Extremes

State Highs State Lows

Community

WunderPhotos

Upload Photos

1,748,622 photos uploaded!

WunderBlogs® & News

Nearby

Snow Depth

Station Depth Elevation
No new snow has been reported.

Earthquake Activity

City Distance Mag. Time & Date
No recent earthquake activity has been reported nearby.
Minimum magnitude displayed is 2.5.

Coastal Water Temperatures

Place Temperature
No Stations Reporting

Nearby Weather Stations